createdAt,value
2022-09-12T00:09:58.974Z,12.64
2022-09-12T00:30:00.803Z,12.42
2022-09-12T00:50:02.666Z,12.37
2022-09-12T01:10:23.578Z,12.39
2022-09-12T01:30:44.249Z,12.50
2022-09-12T01:51:04.839Z,12.68
2022-09-12T02:11:26.027Z,12.89
2022-09-12T02:31:46.467Z,12.83
2022-09-12T02:52:06.689Z,12.86
2022-09-12T03:12:27.476Z,13.10
2022-09-12T03:32:29.770Z,13.12
2022-09-12T03:52:32.933Z,12.99
2022-09-12T04:12:34.777Z,13.07
2022-09-12T04:32:36.748Z,13.24
2022-09-12T04:52:38.810Z,13.76
2022-09-12T05:12:45.383Z,14.62
2022-09-12T05:32:47.289Z,14.26
2022-09-12T05:52:49.381Z,14.28
2022-09-12T06:12:51.580Z,14.65
2022-09-12T06:33:13.906Z,14.82
2022-09-12T06:53:23.223Z,16.17
2022-09-12T07:55:32.091Z,18.23
2022-09-12T08:15:35.605Z,16.85
2022-09-12T08:35:42.881Z,18.45
2022-09-12T08:55:44.671Z,18.62
2022-09-12T09:15:57.092Z,18.52
2022-09-12T09:36:11.432Z,18.48
2022-09-12T09:56:13.822Z,18.30
2022-09-12T10:16:24.839Z,19.91
2022-09-12T10:36:34.176Z,19.37
2022-09-12T10:56:41.428Z,20.20
2022-09-12T11:16:43.501Z,19.56
2022-09-12T11:36:45.497Z,19.88
2022-09-12T11:56:47.673Z,20.14
2022-09-12T12:17:14.195Z,20.88
2022-09-12T12:37:18.296Z,20.96
2022-09-12T12:57:24.519Z,20.54
2022-09-12T13:17:26.314Z,20.01
2022-09-12T13:37:28.172Z,20.79
2022-09-12T13:57:29.972Z,21.57
2022-09-12T14:17:31.812Z,21.28
2022-09-12T14:37:54.174Z,20.28
2022-09-12T14:58:15.733Z,20.18
2022-09-12T15:18:36.158Z,20.37
2022-09-12T15:38:56.578Z,19.52
2022-09-12T15:59:17.153Z,19.24
2022-09-12T16:19:37.722Z,19.33
2022-09-12T16:39:58.657Z,18.51
2022-09-12T17:00:01.071Z,18.36
2022-09-12T17:20:02.830Z,17.91
2022-09-12T17:40:05.030Z,17.40
2022-09-12T18:00:06.862Z,16.55
2022-09-12T18:20:13.361Z,15.68
2022-09-12T18:40:18.697Z,15.76
2022-09-12T19:00:21.371Z,15.81
2022-09-12T19:20:23.350Z,14.73
2022-09-12T19:40:25.300Z,14.30
2022-09-12T20:00:27.117Z,13.98
2022-09-12T20:20:30.746Z,13.86
2022-09-12T20:40:33.075Z,13.39
2022-09-12T21:00:35.083Z,13.23
2022-09-12T21:20:36.789Z,12.30
2022-09-12T21:40:38.731Z,12.42
2022-09-12T22:00:40.225Z,12.42
2022-09-12T22:20:42.959Z,12.53
2022-09-12T22:40:44.412Z,12.24
2022-09-12T23:00:46.571Z,12.10
2022-09-12T23:20:48.200Z,11.79
2022-09-12T23:40:50.544Z,11.47
